sensor_id;sensor_type;location;lat;lon;timestamp;pressure;altitude;pressure_sealevel;temperature;humidity
62725;BME280;49026;52.600;4.694;2022-10-16T00:01:30;100765.84;;;13.98;82.77
62725;BME280;49026;52.600;4.694;2022-10-16T00:03:57;100773.75;;;13.98;81.86
62725;BME280;49026;52.600;4.694;2022-10-16T00:06:23;100779.03;;;13.98;81.84
62725;BME280;49026;52.600;4.694;2022-10-16T00:08:52;100775.88;;;13.92;81.92
62725;BME280;49026;52.600;4.694;2022-10-16T00:11:20;100773.66;;;13.84;82.31
62725;BME280;49026;52.600;4.694;2022-10-16T00:13:47;100750.06;;;13.81;82.56
62725;BME280;49026;52.600;4.694;2022-10-16T00:16:16;100771.84;;;13.84;82.30
62725;BME280;49026;52.600;4.694;2022-10-16T00:18:42;100771.69;;;13.87;82.51
62725;BME280;49026;52.600;4.694;2022-10-16T00:21:16;100775.03;;;13.75;81.55
62725;BME280;49026;52.600;4.694;2022-10-16T00:23:44;100774.38;;;13.54;81.92
62725;BME280;49026;52.600;4.694;2022-10-16T00:26:12;100774.25;;;13.40;81.92
62725;BME280;49026;52.600;4.694;2022-10-16T00:28:38;100772.03;;;13.32;82.44
62725;BME280;49026;52.600;4.694;2022-10-16T00:31:08;100762.44;;;13.29;82.65
62725;BME280;49026;52.600;4.694;2022-10-16T00:33:35;100768.53;;;13.31;82.32
62725;BME280;49026;52.600;4.694;2022-10-16T00:36:03;100765.00;;;13.31;82.26
62725;BME280;49026;52.600;4.694;2022-10-16T00:38:31;100758.75;;;13.33;81.82
62725;BME280;49026;52.600;4.694;2022-10-16T00:41:09;100765.00;;;13.31;81.85
62725;BME280;49026;52.600;4.694;2022-10-16T00:46:08;100759.72;;;13.31;81.40
62725;BME280;49026;52.600;4.694;2022-10-16T00:48:35;100753.78;;;13.27;81.62
62725;BME280;49026;52.600;4.694;2022-10-16T00:51:00;100737.94;;;13.27;81.68
62725;BME280;49026;52.600;4.694;2022-10-16T00:53:26;100763.25;;;13.31;81.31
62725;BME280;49026;52.600;4.694;2022-10-16T00:55:52;100758.75;;;13.33;81.29
62725;BME280;49026;52.600;4.694;2022-10-16T00:58:20;100754.16;;;13.37;80.98
62725;BME280;49026;52.600;4.694;2022-10-16T01:00:48;100765.56;;;13.38;80.88
62725;BME280;49026;52.600;4.694;2022-10-16T01:03:32;100756.56;;;13.42;80.54
62725;BME280;49026;52.600;4.694;2022-10-16T01:06:31;100761.50;;;13.48;80.37
62725;BME280;49026;52.600;4.694;2022-10-16T01:11:52;100758.19;;;13.44;80.54
62725;BME280;49026;52.600;4.694;2022-10-16T01:14:48;100780.47;;;13.39;80.85
62725;BME280;49026;52.600;4.694;2022-10-16T01:17:22;100779.78;;;13.35;80.92
62725;BME280;49026;52.600;4.694;2022-10-16T01:20:11;100781.63;;;13.33;81.09
62725;BME280;49026;52.600;4.694;2022-10-16T01:22:55;100775.72;;;13.28;80.58
62725;BME280;49026;52.600;4.694;2022-10-16T01:28:12;100775.19;;;13.21;81.11
62725;BME280;49026;52.600;4.694;2022-10-16T01:30:38;100773.72;;;13.15;80.96
62725;BME280;49026;52.600;4.694;2022-10-16T01:33:17;100764.19;;;13.13;80.96
62725;BME280;49026;52.600;4.694;2022-10-16T01:35:54;100771.94;;;13.16;80.83
62725;BME280;49026;52.600;4.694;2022-10-16T01:38:30;100774.28;;;13.22;81.19
62725;BME280;49026;52.600;4.694;2022-10-16T01:41:02;100765.44;;;13.23;81.18
62725;BME280;49026;52.600;4.694;2022-10-16T01:43:36;100769.75;;;13.24;80.93
62725;BME280;49026;52.600;4.694;2022-10-16T01:46:03;100776.75;;;13.25;81.23
62725;BME280;49026;52.600;4.694;2022-10-16T01:48:33;100772.16;;;13.29;81.19
62725;BME280;49026;52.600;4.694;2022-10-16T01:51:06;100774.59;;;13.33;81.63
62725;BME280;49026;52.600;4.694;2022-10-16T01:53:37;100778.84;;;13.36;81.71
62725;BME280;49026;52.600;4.694;2022-10-16T01:56:06;100771.72;;;13.38;81.82
62725;BME280;49026;52.600;4.694;2022-10-16T01:58:36;100777.84;;;13.39;81.87
62725;BME280;49026;52.600;4.694;2022-10-16T02:01:04;100780.31;;;13.42;81.67
62725;BME280;49026;52.600;4.694;2022-10-16T02:03:34;100801.38;;;13.43;81.88
62725;BME280;49026;52.600;4.694;2022-10-16T02:05:59;100783.81;;;13.42;82.07
62725;BME280;49026;52.600;4.694;2022-10-16T02:08:27;100777.69;;;13.42;81.54
62725;BME280;49026;52.600;4.694;2022-10-16T02:10:55;100791.72;;;13.42;81.76
62725;BME280;49026;52.600;4.694;2022-10-16T02:13:29;100789.31;;;13.38;81.68
62725;BME280;49026;52.600;4.694;2022-10-16T02:15:56;100795.56;;;13.37;81.76
62725;BME280;49026;52.600;4.694;2022-10-16T02:18:21;100790.28;;;13.37;81.76
62725;BME280;49026;52.600;4.694;2022-10-16T02:20:55;100799.13;;;13.36;81.65
62725;BME280;49026;52.600;4.694;2022-10-16T02:24:03;100795.72;;;13.33;81.40
62725;BME280;49026;52.600;4.694;2022-10-16T02:29:04;100793.28;;;13.29;81.29
62725;BME280;49026;52.600;4.694;2022-10-16T02:31:35;100790.72;;;13.27;81.64
62725;BME280;49026;52.600;4.694;2022-10-16T02:34:06;100800.41;;;13.27;81.64
62725;BME280;49026;52.600;4.694;2022-10-16T02:36:35;100790.72;;;13.27;81.80
62725;BME280;49026;52.600;4.694;2022-10-16T02:39:04;100798.34;;;13.33;81.95
62725;BME280;49026;52.600;4.694;2022-10-16T02:41:31;100798.97;;;13.39;81.85
62725;BME280;49026;52.600;4.694;2022-10-16T02:43:56;100807.41;;;13.45;81.89
62725;BME280;49026;52.600;4.694;2022-10-16T02:46:22;100803.94;;;13.45;81.80
62725;BME280;49026;52.600;4.694;2022-10-16T02:48:47;100811.91;;;13.43;81.85
62725;BME280;49026;52.600;4.694;2022-10-16T02:51:13;100818.19;;;13.41;82.09
62725;BME280;49026;52.600;4.694;2022-10-16T02:53:41;100816.66;;;13.37;81.82
62725;BME280;49026;52.600;4.694;2022-10-16T02:56:07;100818.34;;;13.38;82.20
62725;BME280;49026;52.600;4.694;2022-10-16T02:58:32;100817.50;;;13.37;82.20
62725;BME280;49026;52.600;4.694;2022-10-16T03:00:57;100828.16;;;13.36;81.90
62725;BME280;49026;52.600;4.694;2022-10-16T03:03:25;100838.00;;;13.32;81.74
62725;BME280;49026;52.600;4.694;2022-10-16T03:05:50;100852.50;;;13.23;81.37
62725;BME280;49026;52.600;4.694;2022-10-16T03:08:17;100842.63;;;12.92;81.36
62725;BME280;49026;52.600;4.694;2022-10-16T03:10:48;100848.63;;;12.59;82.11
62725;BME280;49026;52.600;4.694;2022-10-16T03:13:15;100849.59;;;12.39;82.99
62725;BME280;49026;52.600;4.694;2022-10-16T03:15:41;100852.69;;;12.30;83.16
62725;BME280;49026;52.600;4.694;2022-10-16T03:18:06;100849.47;;;12.23;83.46
62725;BME280;49026;52.600;4.694;2022-10-16T03:20:32;100860.22;;;12.18;83.79
62725;BME280;49026;52.600;4.694;2022-10-16T03:22:57;100864.84;;;12.13;83.94
62725;BME280;49026;52.600;4.694;2022-10-16T03:25:24;100866.84;;;12.08;83.51
62725;BME280;49026;52.600;4.694;2022-10-16T03:27:50;100852.22;;;12.01;83.54
62725;BME280;49026;52.600;4.694;2022-10-16T03:30:15;100851.59;;;11.96;83.62
62725;BME280;49026;52.600;4.694;2022-10-16T03:32:44;100845.56;;;11.73;83.90
62725;BME280;49026;52.600;4.694;2022-10-16T03:35:09;100854.47;;;11.50;84.34
62725;BME280;49026;52.600;4.694;2022-10-16T03:37:37;100835.78;;;11.36;85.56
62725;BME280;49026;52.600;4.694;2022-10-16T03:40:05;100834.75;;;11.40;85.41
62725;BME280;49026;52.600;4.694;2022-10-16T03:42:30;100839.53;;;11.50;85.22
62725;BME280;49026;52.600;4.694;2022-10-16T03:44:58;100841.91;;;11.57;85.34
62725;BME280;49026;52.600;4.694;2022-10-16T03:47:23;100839.22;;;11.58;84.82
62725;BME280;49026;52.600;4.694;2022-10-16T03:49:49;100840.06;;;11.59;84.18
62725;BME280;49026;52.600;4.694;2022-10-16T03:52:15;100831.38;;;11.57;85.17
62725;BME280;49026;52.600;4.694;2022-10-16T03:54:43;100850.50;;;11.60;84.66
62725;BME280;49026;52.600;4.694;2022-10-16T03:57:08;100856.34;;;11.67;85.10
62725;BME280;49026;52.600;4.694;2022-10-16T03:59:36;100853.41;;;11.75;85.05
62725;BME280;49026;52.600;4.694;2022-10-16T04:02:03;100854.81;;;11.82;84.56
62725;BME280;49026;52.600;4.694;2022-10-16T04:04:29;100857.97;;;11.90;84.74
62725;BME280;49026;52.600;4.694;2022-10-16T04:06:54;100847.25;;;11.95;84.83
62725;BME280;49026;52.600;4.694;2022-10-16T04:09:21;100845.28;;;12.00;84.49
62725;BME280;49026;52.600;4.694;2022-10-16T04:11:47;100860.00;;;12.04;85.02
62725;BME280;49026;52.600;4.694;2022-10-16T04:14:12;100857.22;;;12.07;84.92
62725;BME280;49026;52.600;4.694;2022-10-16T04:16:38;100862.41;;;12.09;84.38
62725;BME280;49026;52.600;4.694;2022-10-16T04:19:03;100868.53;;;12.09;85.08
62725;BME280;49026;52.600;4.694;2022-10-16T04:21:31;100875.66;;;12.07;84.87
62725;BME280;49026;52.600;4.694;2022-10-16T04:23:56;100881.94;;;12.04;85.27
62725;BME280;49026;52.600;4.694;2022-10-16T04:26:21;100890.19;;;11.97;84.71
62725;BME280;49026;52.600;4.694;2022-10-16T04:28:47;100878.31;;;11.86;85.49
62725;BME280;49026;52.600;4.694;2022-10-16T04:31:12;100880.56;;;11.75;85.48
62725;BME280;49026;52.600;4.694;2022-10-16T04:33:37;100877.63;;;11.62;85.21
62725;BME280;49026;52.600;4.694;2022-10-16T04:36:05;100890.47;;;11.49;85.60
62725;BME280;49026;52.600;4.694;2022-10-16T04:38:33;100885.72;;;11.37;85.45
62725;BME280;49026;52.600;4.694;2022-10-16T04:40:58;100890.50;;;11.27;85.94
62725;BME280;49026;52.600;4.694;2022-10-16T04:43:25;100899.59;;;11.20;85.39
62725;BME280;49026;52.600;4.694;2022-10-16T04:45:51;100899.78;;;11.16;85.06
62725;BME280;49026;52.600;4.694;2022-10-16T04:48:17;100898.19;;;11.11;85.06
62725;BME280;49026;52.600;4.694;2022-10-16T04:50:42;100899.00;;;11.13;84.96
62725;BME280;49026;52.600;4.694;2022-10-16T04:53:07;100898.88;;;11.17;84.63
62725;BME280;49026;52.600;4.694;2022-10-16T04:55:33;100910.84;;;11.24;84.64
62725;BME280;49026;52.600;4.694;2022-10-16T04:57:58;100916.38;;;11.38;84.97
62725;BME280;49026;52.600;4.694;2022-10-16T05:00:23;100918.34;;;11.54;85.09
62725;BME280;49026;52.600;4.694;2022-10-16T05:02:52;100916.78;;;11.70;84.56
62725;BME280;49026;52.600;4.694;2022-10-16T05:05:17;100921.97;;;11.92;84.79
62725;BME280;49026;52.600;4.694;2022-10-16T05:07:45;100926.34;;;12.12;84.87
62725;BME280;49026;52.600;4.694;2022-10-16T05:10:10;100924.78;;;12.27;84.46
62725;BME280;49026;52.600;4.694;2022-10-16T05:12:36;100920.81;;;12.37;84.56
62725;BME280;49026;52.600;4.694;2022-10-16T05:15:01;100915.34;;;12.42;84.61
62725;BME280;49026;52.600;4.694;2022-10-16T05:17:29;100901.16;;;12.45;84.57
62725;BME280;49026;52.600;4.694;2022-10-16T05:19:54;100900.16;;;12.47;85.53
62725;BME280;49026;52.600;4.694;2022-10-16T05:22:20;100887.13;;;12.44;86.15
62725;BME280;49026;52.600;4.694;2022-10-16T05:24:45;100916.19;;;12.42;86.21
62725;BME280;49026;52.600;4.694;2022-10-16T05:27:10;100920.66;;;12.40;85.76
62725;BME280;49026;52.600;4.694;2022-10-16T05:29:36;100926.00;;;12.39;85.54
62725;BME280;49026;52.600;4.694;2022-10-16T05:32:02;100921.69;;;12.38;85.42
62725;BME280;49026;52.600;4.694;2022-10-16T05:34:27;100932.22;;;12.38;86.44
62725;BME280;49026;52.600;4.694;2022-10-16T05:36:52;100939.25;;;12.37;86.18
62725;BME280;49026;52.600;4.694;2022-10-16T05:39:20;100940.19;;;12.36;85.70
62725;BME280;49026;52.600;4.694;2022-10-16T05:41:45;100938.47;;;12.35;86.01
62725;BME280;49026;52.600;4.694;2022-10-16T05:44:11;100930.72;;;12.32;86.37
62725;BME280;49026;52.600;4.694;2022-10-16T05:46:36;100926.53;;;12.28;86.51
62725;BME280;49026;52.600;4.694;2022-10-16T05:49:02;100917.09;;;12.22;86.12
62725;BME280;49026;52.600;4.694;2022-10-16T05:51:27;100940.94;;;12.19;86.31
62725;BME280;49026;52.600;4.694;2022-10-16T05:53:52;100948.06;;;12.17;88.01
62725;BME280;49026;52.600;4.694;2022-10-16T05:56:20;100954.13;;;12.19;86.96
62725;BME280;49026;52.600;4.694;2022-10-16T05:58:45;100962.88;;;12.20;87.07
62725;BME280;49026;52.600;4.694;2022-10-16T06:03:38;100964.66;;;12.19;87.15
62725;BME280;49026;52.600;4.694;2022-10-16T06:06:21;100970.78;;;12.20;86.60
62725;BME280;49026;52.600;4.694;2022-10-16T06:08:47;100963.75;;;12.20;86.26
62725;BME280;49026;52.600;4.694;2022-10-16T06:11:16;100967.22;;;12.21;86.16
62725;BME280;49026;52.600;4.694;2022-10-16T06:13:41;100971.72;;;12.19;86.42
62725;BME280;49026;52.600;4.694;2022-10-16T06:16:11;100977.03;;;12.17;85.96
62725;BME280;49026;52.600;4.694;2022-10-16T06:18:36;100970.22;;;12.13;87.01
62725;BME280;49026;52.600;4.694;2022-10-16T06:21:12;100965.06;;;12.10;86.73
62725;BME280;49026;52.600;4.694;2022-10-16T06:23:38;100976.53;;;12.09;86.67
62725;BME280;49026;52.600;4.694;2022-10-16T06:26:06;100986.28;;;12.07;86.65
62725;BME280;49026;52.600;4.694;2022-10-16T06:28:34;100993.41;;;12.05;86.72
62725;BME280;49026;52.600;4.694;2022-10-16T06:31:03;100990.78;;;12.05;87.18
62725;BME280;49026;52.600;4.694;2022-10-16T06:33:29;100976.75;;;12.04;88.69
62725;BME280;49026;52.600;4.694;2022-10-16T06:36:03;101011.06;;;12.03;88.15
62725;BME280;49026;52.600;4.694;2022-10-16T06:38:29;101016.25;;;12.04;87.09
62725;BME280;49026;52.600;4.694;2022-10-16T06:40:55;101017.88;;;12.07;86.04
62725;BME280;49026;52.600;4.694;2022-10-16T06:43:23;101030.94;;;12.10;85.57
62725;BME280;49026;52.600;4.694;2022-10-16T06:45:53;101016.84;;;12.11;85.87
62725;BME280;49026;52.600;4.694;2022-10-16T06:48:18;101028.16;;;12.13;85.50
62725;BME280;49026;52.600;4.694;2022-10-16T06:50:43;101039.34;;;12.18;86.32
62725;BME280;49026;52.600;4.694;2022-10-16T06:53:08;101048.75;;;12.24;85.80
62725;BME280;49026;52.600;4.694;2022-10-16T06:55:34;101048.56;;;12.29;85.76
62725;BME280;49026;52.600;4.694;2022-10-16T06:57:59;101054.63;;;12.31;85.51
62725;BME280;49026;52.600;4.694;2022-10-16T07:00:24;101060.59;;;12.34;85.16
62725;BME280;49026;52.600;4.694;2022-10-16T07:02:53;101063.81;;;12.41;85.59
62725;BME280;49026;52.600;4.694;2022-10-16T07:05:20;101058.81;;;12.55;86.21
62725;BME280;49026;52.600;4.694;2022-10-16T07:07:45;101061.38;;;12.76;86.02
62725;BME280;49026;52.600;4.694;2022-10-16T07:10:11;101061.28;;;12.98;85.97
62725;BME280;49026;52.600;4.694;2022-10-16T07:12:36;101074.66;;;13.12;86.19
62725;BME280;49026;52.600;4.694;2022-10-16T07:15:01;101084.84;;;13.20;86.28
62725;BME280;49026;52.600;4.694;2022-10-16T07:17:27;101082.72;;;13.28;85.64
62725;BME280;49026;52.600;4.694;2022-10-16T07:19:52;101090.00;;;13.42;86.17
62725;BME280;49026;52.600;4.694;2022-10-16T07:22:20;101100.06;;;13.70;86.48
62725;BME280;49026;52.600;4.694;2022-10-16T07:24:45;101102.28;;;13.97;86.18
62725;BME280;49026;52.600;4.694;2022-10-16T07:27:11;101114.41;;;14.19;86.07
62725;BME280;49026;52.600;4.694;2022-10-16T07:29:36;101115.03;;;14.24;85.88
62725;BME280;49026;52.600;4.694;2022-10-16T07:32:04;101115.47;;;14.15;86.25
62725;BME280;49026;52.600;4.694;2022-10-16T07:34:32;101123.59;;;14.12;86.32
62725;BME280;49026;52.600;4.694;2022-10-16T07:36:57;101134.53;;;14.04;86.51
62725;BME280;49026;52.600;4.694;2022-10-16T07:39:22;101144.94;;;14.07;86.50
62725;BME280;49026;52.600;4.694;2022-10-16T07:41:50;101150.16;;;14.26;86.30
62725;BME280;49026;52.600;4.694;2022-10-16T07:44:16;101163.38;;;14.43;85.73
62725;BME280;49026;52.600;4.694;2022-10-16T07:46:41;101156.81;;;14.33;85.65
62725;BME280;49026;52.600;4.694;2022-10-16T07:49:06;101159.94;;;14.06;85.93
62725;BME280;49026;52.600;4.694;2022-10-16T07:51:32;101164.66;;;14.00;85.93
62725;BME280;49026;52.600;4.694;2022-10-16T07:53:57;101161.03;;;14.20;85.91
62725;BME280;49026;52.600;4.694;2022-10-16T07:56:23;101171.13;;;14.46;85.53
62725;BME280;49026;52.600;4.694;2022-10-16T07:58:50;101171.84;;;14.68;85.07
62725;BME280;49026;52.600;4.694;2022-10-16T08:01:16;101162.25;;;14.82;84.56
62725;BME280;49026;52.600;4.694;2022-10-16T08:03:43;101179.28;;;14.94;84.81
62725;BME280;49026;52.600;4.694;2022-10-16T08:06:09;101170.44;;;15.11;84.49
62725;BME280;49026;52.600;4.694;2022-10-16T08:08:34;101189.25;;;15.23;84.21
62725;BME280;49026;52.600;4.694;2022-10-16T08:11:00;101203.31;;;15.23;84.38
62725;BME280;49026;52.600;4.694;2022-10-16T08:13:28;101201.88;;;15.33;84.59
62725;BME280;49026;52.600;4.694;2022-10-16T08:15:54;101205.69;;;15.45;84.17
62725;BME280;49026;52.600;4.694;2022-10-16T08:18:22;101205.94;;;15.56;84.28
62725;BME280;49026;52.600;4.694;2022-10-16T08:20:47;101211.66;;;15.65;84.16
62725;BME280;49026;52.600;4.694;2022-10-16T08:23:13;101225.25;;;15.74;83.95
62725;BME280;49026;52.600;4.694;2022-10-16T08:25:39;101212.94;;;15.73;83.54
62725;BME280;49026;52.600;4.694;2022-10-16T08:28:07;101209.31;;;15.76;82.75
62725;BME280;49026;52.600;4.694;2022-10-16T08:30:33;101224.06;;;15.80;82.26
62725;BME280;49026;52.600;4.694;2022-10-16T08:32:58;101223.66;;;15.88;81.89
62725;BME280;49026;52.600;4.694;2022-10-16T08:35:24;101226.72;;;15.96;79.97
62725;BME280;49026;52.600;4.694;2022-10-16T08:37:49;101240.22;;;16.07;80.29
62725;BME280;49026;52.600;4.694;2022-10-16T08:40:38;101228.41;;;16.13;79.34
62725;BME280;49026;52.600;4.694;2022-10-16T08:48:49;101254.28;;;16.40;78.75
62725;BME280;49026;52.600;4.694;2022-10-16T08:51:23;101270.25;;;16.54;78.51
62725;BME280;49026;52.600;4.694;2022-10-16T08:53:56;101255.50;;;16.64;78.49
62725;BME280;49026;52.600;4.694;2022-10-16T08:56:23;101267.63;;;16.68;78.92
62725;BME280;49026;52.600;4.694;2022-10-16T08:58:49;101267.44;;;16.72;77.12
62725;BME280;49026;52.600;4.694;2022-10-16T09:01:17;101263.59;;;16.77;77.03
62725;BME280;49026;52.600;4.694;2022-10-16T09:06:53;101298.72;;;16.97;76.91
62725;BME280;49026;52.600;4.694;2022-10-16T09:12:35;101293.09;;;17.32;76.27
62725;BME280;49026;52.600;4.694;2022-10-16T09:15:05;101309.78;;;17.48;76.29
62725;BME280;49026;52.600;4.694;2022-10-16T09:20:20;101317.94;;;17.45;74.88
62725;BME280;49026;52.600;4.694;2022-10-16T09:25:49;101336.66;;;17.58;74.19
62725;BME280;49026;52.600;4.694;2022-10-16T09:28:17;101330.56;;;17.70;74.48
62725;BME280;49026;52.600;4.694;2022-10-16T09:30:43;101329.59;;;17.86;73.72
62725;BME280;49026;52.600;4.694;2022-10-16T09:33:12;101325.09;;;17.88;73.00
62725;BME280;49026;52.600;4.694;2022-10-16T09:35:40;101328.59;;;17.88;71.57
62725;BME280;49026;52.600;4.694;2022-10-16T09:38:07;101333.91;;;17.88;72.01
62725;BME280;49026;52.600;4.694;2022-10-16T09:40:35;101330.97;;;17.93;72.01
62725;BME280;49026;52.600;4.694;2022-10-16T09:45:58;101338.50;;;18.13;72.69
62725;BME280;49026;52.600;4.694;2022-10-16T09:48:28;101340.44;;;18.11;72.40
62725;BME280;49026;52.600;4.694;2022-10-16T09:50:57;101352.38;;;17.75;73.98
62725;BME280;49026;52.600;4.694;2022-10-16T09:53:26;101362.81;;;17.35;75.76
62725;BME280;49026;52.600;4.694;2022-10-16T09:56:02;101358.81;;;17.28;76.86
62725;BME280;49026;52.600;4.694;2022-10-16T09:58:30;101359.41;;;17.62;74.94
62725;BME280;49026;52.600;4.694;2022-10-16T10:00:58;101361.78;;;18.10;73.93
62725;BME280;49026;52.600;4.694;2022-10-16T10:06:29;101376.28;;;18.60;71.99
62725;BME280;49026;52.600;4.694;2022-10-16T10:08:58;101366.53;;;18.74;71.86
62725;BME280;49026;52.600;4.694;2022-10-16T10:11:38;101363.84;;;18.61;68.50
62725;BME280;49026;52.600;4.694;2022-10-16T10:14:17;101382.34;;;18.35;69.63
62725;BME280;49026;52.600;4.694;2022-10-16T10:16:43;101383.44;;;18.18;70.02
62725;BME280;49026;52.600;4.694;2022-10-16T10:19:26;101389.31;;;18.38;69.77
62725;BME280;49026;52.600;4.694;2022-10-16T10:21:52;101376.19;;;18.62;70.19
62725;BME280;49026;52.600;4.694;2022-10-16T10:24:19;101381.53;;;18.62;70.08
62725;BME280;49026;52.600;4.694;2022-10-16T10:26:58;101393.28;;;18.72;70.26
62725;BME280;49026;52.600;4.694;2022-10-16T10:29:32;101398.53;;;19.14;70.69
62725;BME280;49026;52.600;4.694;2022-10-16T10:32:19;101406.13;;;19.20;68.95
62725;BME280;49026;52.600;4.694;2022-10-16T10:42:54;101422.09;;;19.33;67.96
62725;BME280;49026;52.600;4.694;2022-10-16T10:45:51;101433.63;;;19.33;69.04
62725;BME280;49026;52.600;4.694;2022-10-16T10:48:46;101433.97;;;19.54;68.96
62725;BME280;49026;52.600;4.694;2022-10-16T10:54:20;101431.97;;;19.58;69.17
62725;BME280;49026;52.600;4.694;2022-10-16T10:56:55;101448.66;;;19.34;68.61
62725;BME280;49026;52.600;4.694;2022-10-16T10:59:48;101447.66;;;19.22;68.65
62725;BME280;49026;52.600;4.694;2022-10-16T11:02:37;101452.66;;;19.14;68.99
62725;BME280;49026;52.600;4.694;2022-10-16T11:05:20;101450.97;;;19.13;68.97
62725;BME280;49026;52.600;4.694;2022-10-16T11:07:57;101451.47;;;19.05;67.83
62725;BME280;49026;52.600;4.694;2022-10-16T11:10:52;101454.06;;;18.93;68.70
62725;BME280;49026;52.600;4.694;2022-10-16T11:13:39;101463.78;;;18.94;68.54
62725;BME280;49026;52.600;4.694;2022-10-16T11:16:17;101453.88;;;18.96;67.71
62725;BME280;49026;52.600;4.694;2022-10-16T11:22:09;101470.63;;;18.98;67.55
62725;BME280;49026;52.600;4.694;2022-10-16T11:24:45;101464.03;;;19.03;67.45
62725;BME280;49026;52.600;4.694;2022-10-16T11:27:16;101479.81;;;19.06;67.76
62725;BME280;49026;52.600;4.694;2022-10-16T11:29:57;101479.56;;;18.82;66.38
62725;BME280;49026;52.600;4.694;2022-10-16T11:32:49;101482.56;;;18.49;66.96
62725;BME280;49026;52.600;4.694;2022-10-16T11:35:23;101487.28;;;18.31;67.66
62725;BME280;49026;52.600;4.694;2022-10-16T11:37:51;101484.22;;;18.37;67.69
62725;BME280;49026;52.600;4.694;2022-10-16T11:40:25;101488.72;;;18.64;67.40
62725;BME280;49026;52.600;4.694;2022-10-16T11:45:42;101491.88;;;19.52;67.21
62725;BME280;49026;52.600;4.694;2022-10-16T11:48:23;101502.81;;;20.01;66.70
62725;BME280;49026;52.600;4.694;2022-10-16T11:50:55;101495.09;;;20.34;65.93
62725;BME280;49026;52.600;4.694;2022-10-16T11:56:13;101500.53;;;20.46;65.79
62725;BME280;49026;52.600;4.694;2022-10-16T12:01:37;101493.53;;;20.06;65.83
62725;BME280;49026;52.600;4.694;2022-10-16T12:04:27;101502.09;;;20.61;65.20
62725;BME280;49026;52.600;4.694;2022-10-16T12:07:03;101510.81;;;20.65;64.15
62725;BME280;49026;52.600;4.694;2022-10-16T12:09:32;101498.19;;;20.54;64.17
62725;BME280;49026;52.600;4.694;2022-10-16T12:11:59;101512.78;;;20.74;64.83
62725;BME280;49026;52.600;4.694;2022-10-16T12:16:57;101514.88;;;21.19;64.15
62725;BME280;49026;52.600;4.694;2022-10-16T12:19:30;101514.66;;;21.22;63.21
62725;BME280;49026;52.600;4.694;2022-10-16T12:21:56;101522.81;;;20.83;64.04
62725;BME280;49026;52.600;4.694;2022-10-16T12:26:59;101529.25;;;20.55;63.72
62725;BME280;49026;52.600;4.694;2022-10-16T12:29:39;101521.06;;;20.32;63.13
62725;BME280;49026;52.600;4.694;2022-10-16T12:32:31;101528.13;;;20.21;64.71
62725;BME280;49026;52.600;4.694;2022-10-16T12:34:58;101534.94;;;19.99;62.99
62725;BME280;49026;52.600;4.694;2022-10-16T12:39:58;101537.69;;;20.49;63.71
62725;BME280;49026;52.600;4.694;2022-10-16T12:42:33;101537.47;;;20.52;63.15
62725;BME280;49026;52.600;4.694;2022-10-16T12:44:59;101524.50;;;20.84;63.13
62725;BME280;49026;52.600;4.694;2022-10-16T12:49:56;101526.16;;;21.71;60.26
62725;BME280;49026;52.600;4.694;2022-10-16T12:54:59;101532.91;;;21.99;60.76
62725;BME280;49026;52.600;4.694;2022-10-16T13:05:35;101545.41;;;21.87;60.58
62725;BME280;49026;52.600;4.694;2022-10-16T13:11:10;101549.91;;;21.98;58.89
62725;BME280;49026;52.600;4.694;2022-10-16T13:16:48;101543.69;;;21.86;60.02
62725;BME280;49026;52.600;4.694;2022-10-16T13:19:24;101544.72;;;21.61;59.49
62725;BME280;49026;52.600;4.694;2022-10-16T13:27:22;101553.41;;;21.03;59.65
62725;BME280;49026;52.600;4.694;2022-10-16T13:29:53;101554.75;;;21.33;59.50
62725;BME280;49026;52.600;4.694;2022-10-16T13:32:22;101561.03;;;21.69;59.04
62725;BME280;49026;52.600;4.694;2022-10-16T13:34:51;101548.09;;;21.87;58.88
62725;BME280;49026;52.600;4.694;2022-10-16T13:37:37;101553.59;;;21.97;57.48
62725;BME280;49026;52.600;4.694;2022-10-16T13:40:28;101564.66;;;21.57;58.67
62725;BME280;49026;52.600;4.694;2022-10-16T13:42:53;101564.66;;;21.20;58.95
62725;BME280;49026;52.600;4.694;2022-10-16T13:45:25;101570.78;;;20.85;58.09
62725;BME280;49026;52.600;4.694;2022-10-16T13:48:11;101577.88;;;20.22;59.54
62725;BME280;49026;52.600;4.694;2022-10-16T13:50:37;101570.97;;;19.79;60.37
62725;BME280;49026;52.600;4.694;2022-10-16T13:53:06;101584.72;;;19.46;60.72
62725;BME280;49026;52.600;4.694;2022-10-16T13:55:39;101592.81;;;19.17;61.39
62725;BME280;49026;52.600;4.694;2022-10-16T13:58:07;101608.84;;;18.88;61.80
62725;BME280;49026;52.600;4.694;2022-10-16T14:00:33;101597.13;;;18.62;62.27
62725;BME280;49026;52.600;4.694;2022-10-16T14:03:03;101596.91;;;18.22;61.83
62725;BME280;49026;52.600;4.694;2022-10-16T14:05:35;101601.03;;;17.81;62.57
62725;BME280;49026;52.600;4.694;2022-10-16T14:08:23;101609.75;;;17.53;63.18
62725;BME280;49026;52.600;4.694;2022-10-16T14:10:53;101614.81;;;17.41;63.55
62725;BME280;49026;52.600;4.694;2022-10-16T14:13:29;101612.16;;;17.41;63.67
62725;BME280;49026;52.600;4.694;2022-10-16T14:15:57;101610.84;;;17.49;63.83
62725;BME280;49026;52.600;4.694;2022-10-16T14:18:26;101604.44;;;17.53;63.47
62725;BME280;49026;52.600;4.694;2022-10-16T14:20:54;101614.56;;;17.46;63.74
62725;BME280;49026;52.600;4.694;2022-10-16T14:23:34;101615.00;;;17.38;64.04
62725;BME280;49026;52.600;4.694;2022-10-16T14:26:13;101604.53;;;17.35;63.85
62725;BME280;49026;52.600;4.694;2022-10-16T14:28:39;101605.22;;;17.39;64.24
62725;BME280;49026;52.600;4.694;2022-10-16T14:31:32;101599.63;;;17.44;63.78
62725;BME280;49026;52.600;4.694;2022-10-16T14:33:59;101602.56;;;17.39;63.70
62725;BME280;49026;52.600;4.694;2022-10-16T14:36:26;101598.63;;;17.30;63.94